Fayetteville, Texas
Current Conditions -  °F | °C
As of 11:10 AM on Wednesday 26 Nov 2014 (Local Time) from K3T5 Reporting Station
Clear Clear  
Wind Chill: 65°   Ceiling: Unl
Heat Index: 65°   Visibility: 10mi
Dew Point: 37°   Wind: 12mph
Humidity: 35%   Direction: 240°WSW
Pressure: 30.21"   Gusts: 18mph
Location:  29.91°N, 96.67°W
Report Text: K3T5 261710Z AUTO 24010G16KT 10SM CLR 19/03 A3021 RMK AO2 T01860030
Loading
Personal Weather Stations






























Interactive Weather Map New forecast layout! Learn more

10-Day Weather Forecast

Advertisements
Track Severe Weather on mobile